Time;durP1;ratioP1;P1;durP2;ratioP2;P2;SDS_P1;SDS_P2;PMS_P1;PMS_P2;Temp;Humidity;BMP_temperature;BMP_pressure;BME280_temperature;BME280_humidity;BME280_pressure;Samples;Min_cycle;Max_cycle;Signal;HPM_P1;HPM_P2
2022/11/07 00:01:43;;;;;;;;;5.25;3.00;;;;;7.28;86.72;98470.78;4895936;28;102263;-70
2022/11/07 00:04:10;;;;;;;;;11.50;10.25;;;;;7.27;86.19;98483.41;4907575;28;102407;-70
2022/11/07 00:06:37;;;;;;;;;10.00;8.00;;;;;7.25;86.64;98471.97;4907766;28;104012;-70
2022/11/07 00:09:04;;;;;;;;;9.50;8.50;;;;;7.22;85.90;98475.03;4911035;28;102355;-70
2022/11/07 00:11:31;;;;;;;;;8.50;7.75;;;;;7.17;86.15;98467.53;4909340;28;102248;-70
2022/11/07 00:13:58;;;;;;;;;8.75;8.00;;;;;7.14;86.62;98472.44;4901790;28;106199;-70
2022/11/07 00:16:27;;;;;;;;;12.50;9.00;;;;;7.15;86.34;98479.50;4899806;28;108720;-70
2022/11/07 00:18:54;;;;;;;;;4.00;4.00;;;;;7.12;86.22;98469.09;4902118;28;104809;-70
2022/11/07 00:21:22;;;;;;;;;3.50;3.00;;;;;7.12;86.64;98475.28;4903968;28;104277;-70
2022/11/07 00:23:50;;;;;;;;;16.25;10.50;;;;;7.00;86.75;98468.69;4889609;28;102192;-71
2022/11/07 00:26:16;;;;;;;;;13.75;10.75;;;;;7.02;86.68;98476.59;4907826;28;104334;-71
2022/11/07 00:28:44;;;;;;;;;8.25;7.00;;;;;7.03;86.94;98476.38;4906064;28;102471;-71
2022/11/07 00:31:13;;;;;;;;;9.75;8.00;;;;;7.02;87.16;98474.75;4903971;28;103735;-71
2022/11/07 00:33:41;;;;;;;;;7.25;7.00;;;;;7.03;86.48;98479.06;4907228;28;102077;-71
2022/11/07 00:36:09;;;;;;;;;2.75;2.00;;;;;7.09;86.52;98483.75;4906380;28;104065;-70
2022/11/07 00:38:36;;;;;;;;;6.75;4.00;;;;;7.06;86.42;98481.41;4903354;28;102530;-70
2022/11/07 00:41:05;;;;;;;;;3.50;3.50;;;;;7.11;86.28;98475.50;4903531;28;102581;-70
2022/11/07 00:43:32;;;;;;;;;3.50;2.75;;;;;7.14;86.56;98480.50;4907297;28;102300;-71
2022/11/07 00:46:02;;;;;;;;;8.00;2.00;;;;;7.18;86.89;98479.13;4900708;28;104431;-71
2022/11/07 00:48:29;;;;;;;;;13.25;10.00;;;;;7.16;87.02;98460.47;4901293;28;103054;-71
2022/11/07 00:50:57;;;;;;;;;6.25;6.25;;;;;7.21;86.50;98459.09;4907778;28;102123;-71
2022/11/07 00:53:24;;;;;;;;;4.50;3.75;;;;;7.25;86.44;98457.72;4900876;28;103382;-71
2022/11/07 00:55:50;;;;;;;;;6.50;5.00;;;;;7.28;86.45;98457.34;4906472;28;104027;-71
2022/11/07 00:58:17;;;;;;;;;25.00;18.50;;;;;7.13;86.68;98455.47;4904230;28;102293;-71
2022/11/07 01:00:44;;;;;;;;;29.25;21.25;;;;;6.97;86.88;98436.81;4899891;28;102758;-71
2022/11/07 01:06:02;;;;;;;;;13.50;11.00;;;;;7.11;86.75;98449.41;4901643;28;108316;-71
2022/11/07 01:08:30;;;;;;;;;19.00;18.50;;;;;7.04;87.89;98437.75;4904046;28;102196;-71
2022/11/07 01:10:58;;;;;;;;;22.75;17.25;;;;;7.07;87.51;98432.00;4902096;28;102302;-71
2022/11/07 01:13:25;;;;;;;;;15.75;13.50;;;;;7.10;87.37;98442.41;4901719;28;102561;-70
2022/11/07 01:15:53;;;;;;;;;17.50;15.00;;;;;7.05;87.30;98436.72;4901016;28;104860;-70
2022/11/07 01:18:20;;;;;;;;;15.50;15.00;;;;;7.05;86.87;98431.34;4903478;28;102184;-71
2022/11/07 01:20:48;;;;;;;;;13.50;12.50;;;;;7.05;87.05;98434.03;4905566;28;104373;-71
2022/11/07 01:23:16;;;;;;;;;14.75;14.75;;;;;6.99;86.85;98420.47;4905796;28;102380;-71
2022/11/07 01:25:44;;;;;;;;;22.00;17.00;;;;;7.04;87.36;98427.00;4904980;28;104373;-71
2022/11/07 01:28:11;;;;;;;;;12.25;9.25;;;;;7.08;87.70;98427.44;4901955;28;102299;-70
2022/11/07 01:30:39;;;;;;;;;8.00;8.00;;;;;7.07;87.39;98423.09;4906568;28;102299;-71
2022/11/07 01:33:07;;;;;;;;;13.75;9.50;;;;;7.06;87.47;98422.28;4909519;28;102435;-71
2022/11/07 01:35:34;;;;;;;;;9.00;8.00;;;;;7.03;86.99;98419.94;4909511;28;104163;-71
2022/11/07 01:38:02;;;;;;;;;9.75;9.25;;;;;7.01;87.63;98424.69;4905959;28;102364;-71
2022/11/07 01:40:32;;;;;;;;;7.50;6.75;;;;;7.04;87.55;98421.63;4909403;28;102282;-71
2022/11/07 01:42:59;;;;;;;;;7.00;6.00;;;;;7.04;87.63;98421.63;4911609;28;102337;-70
2022/11/07 01:45:29;;;;;;;;;5.25;4.25;;;;;7.08;87.91;98422.91;4911547;28;104107;-70
2022/11/07 01:48:00;;;;;;;;;8.00;6.50;;;;;7.10;87.78;98418.19;4908241;28;102265;-70
2022/11/07 01:50:29;;;;;;;;;5.25;4.00;;;;;7.17;88.09;98421.81;4909846;28;102973;-70
2022/11/07 01:52:56;;;;;;;;;3.00;3.00;;;;;7.21;87.60;98418.75;4906186;28;102513;-71
2022/11/07 01:55:31;;;;;;;;;6.75;6.25;;;;;7.22;87.92;98412.34;4910290;28;108729;-70
2022/11/07 01:58:04;;;;;;;;;2.25;2.25;;;;;7.16;87.55;98401.31;4905577;28;102504;-70
2022/11/07 02:00:33;;;;;;;;;7.00;6.00;;;;;7.26;87.13;98410.97;4902111;28;102276;-70
2022/11/07 02:03:06;;;;;;;;;4.25;3.75;;;;;7.32;86.96;98412.94;4902330;28;102273;-70
2022/11/07 02:05:48;;;;;;;;;2.25;2.25;;;;;7.39;86.87;98405.78;4900570;28;104092;-71
2022/11/07 02:08:29;;;;;;;;;3.00;3.00;;;;;7.42;86.53;98406.25;4903226;28;102256;-71
2022/11/07 02:11:16;;;;;;;;;1.50;1.50;;;;;7.44;86.53;98403.38;4899137;28;101988;-71
2022/11/07 02:14:01;;;;;;;;;3.50;3.00;;;;;7.48;86.86;98407.34;4899652;28;102858;-71
2022/11/07 02:16:51;;;;;;;;;1.75;1.75;;;;;7.51;86.69;98398.94;4904390;28;108672;-70
2022/11/07 02:19:46;;;;;;;;;11.00;9.75;;;;;7.39;86.54;98395.00;4901628;28;102349;-71
2022/11/07 02:22:34;;;;;;;;;13.75;9.25;;;;;7.41;87.06;98401.91;4906049;28;102357;-71
2022/11/07 02:25:16;;;;;;;;;5.75;5.00;;;;;7.46;86.74;98402.19;4897192;28;104180;-71
2022/11/07 02:27:46;;;;;;;;;4.25;3.50;;;;;7.29;86.95;98367.59;4906078;28;109315;-71
2022/11/07 02:30:26;;;;;;;;;4.25;4.00;;;;;7.44;86.84;98397.97;4899235;28;102269;-71
2022/11/07 02:32:53;;;;;;;;;5.75;4.50;;;;;7.47;87.47;98398.47;4901706;28;110210;-71
2022/11/07 02:35:40;;;;;;;;;7.50;5.75;;;;;7.50;87.28;98381.94;4906027;28;102520;-70
2022/11/07 02:38:10;;;;;;;;;2.00;2.00;;;;;7.56;86.77;98391.13;4905468;28;108761;-71
2022/11/07 02:40:38;;;;;;;;;3.25;3.00;;;;;7.56;86.67;98383.88;4906572;28;102292;-71
2022/11/07 02:43:08;;;;;;;;;4.50;3.25;;;;;7.54;86.56;98377.03;4908427;28;102300;-71
2022/11/07 02:45:39;;;;;;;;;4.50;4.50;;;;;7.56;87.53;98375.78;4905676;28;102251;-71
2022/11/07 02:48:07;;;;;;;;;9.00;7.25;;;;;7.53;86.61;98372.66;4910836;28;103994;-71
2022/11/07 02:50:33;;;;;;;;;12.25;10.00;;;;;7.36;87.53;98349.69;4903818;28;102171;-71
2022/11/07 02:53:00;;;;;;;;;9.00;5.00;;;;;7.38;86.65;98350.34;4906463;28;102916;-71
2022/11/07 02:55:27;;;;;;;;;17.25;14.25;;;;;7.43;87.57;98359.50;4899942;28;102276;-70
2022/11/07 02:57:54;;;;;;;;;23.25;21.00;;;;;7.32;87.41;98364.50;4907424;28;108823;-70
2022/11/07 03:00:21;;;;;;;;;16.25;12.25;;;;;7.37;87.64;98356.72;4906905;28;102354;-71
2022/11/07 03:02:49;;;;;;;;;10.00;9.00;;;;;7.39;86.94;98358.19;4913572;28;102291;-70
2022/11/07 03:05:18;;;;;;;;;11.75;9.00;;;;;7.44;87.41;98363.00;4912736;28;102541;-71
2022/11/07 03:07:47;;;;;;;;;4.00;2.25;;;;;7.50;87.40;98367.66;4912138;28;104175;-71
2022/11/07 03:10:15;;;;;;;;;4.00;3.25;;;;;7.54;86.36;98371.63;4910609;28;102132;-71
2022/11/07 03:12:42;;;;;;;;;10.00;8.00;;;;;7.51;86.67;98372.03;4907899;28;102350;-71
2022/11/07 03:15:10;;;;;;;;;15.50;13.00;;;;;7.42;87.25;98365.06;4910183;28;103359;-71
2022/11/07 03:17:38;;;;;;;;;11.25;8.75;;;;;7.45;87.28;98370.06;4902309;28;105254;-71
2022/11/07 03:20:05;;;;;;;;;9.00;8.00;;;;;7.43;87.50;98369.44;4913044;28;102294;-71
2022/11/07 03:22:32;;;;;;;;;15.25;13.00;;;;;7.39;87.33;98377.03;4899378;28;104130;-71
2022/11/07 03:24:59;;;;;;;;;13.25;10.75;;;;;7.37;86.91;98375.56;4906233;28;102393;-71
2022/11/07 03:27:27;;;;;;;;;18.50;14.25;;;;;7.35;87.44;98382.97;4915227;28;104011;-71
2022/11/07 03:29:54;;;;;;;;;10.00;7.00;;;;;7.37;87.37;98376.41;4905888;28;102444;-71
2022/11/07 03:32:21;;;;;;;;;13.50;10.00;;;;;7.42;87.79;98383.91;4908490;28;103278;-71
2022/11/07 03:34:48;;;;;;;;;8.50;8.25;;;;;7.46;87.25;98369.06;4909624;28;106080;-71
2022/11/07 03:37:15;;;;;;;;;4.25;4.00;;;;;7.51;86.47;98380.94;4898254;28;103595;-71
2022/11/07 03:39:42;;;;;;;;;7.00;4.00;;;;;7.45;86.12;98352.06;4902331;28;104519;-71
2022/11/07 03:42:10;;;;;;;;;7.50;4.50;;;;;7.57;86.21;98373.94;4908722;28;102516;-71
2022/11/07 03:44:36;;;;;;;;;3.00;2.00;;;;;7.58;86.13;98373.78;4908559;28;102211;-71
2022/11/07 03:47:03;;;;;;;;;3.50;2.75;;;;;7.59;86.67;98366.53;4905529;28;106075;-71
2022/11/07 03:49:30;;;;;;;;;4.00;4.00;;;;;7.55;86.06;98367.94;4906703;28;102603;-70
2022/11/07 03:51:57;;;;;;;;;2.50;1.75;;;;;7.59;86.62;98371.91;4904780;28;102256;-70
2022/11/07 03:54:24;;;;;;;;;2.00;1.00;;;;;7.58;85.73;98367.53;4918551;28;102253;-70
2022/11/07 03:56:51;;;;;;;;;27.75;21.00;;;;;7.37;86.95;98362.09;4910154;28;104141;-70
2022/11/07 03:59:18;;;;;;;;;28.75;26.00;;;;;7.25;87.17;98375.16;4904914;28;102375;-70
2022/11/07 04:01:45;;;;;;;;;26.25;19.75;;;;;7.22;87.40;98378.25;4909955;28;102042;-70
2022/11/07 04:04:12;;;;;;;;;16.00;15.50;;;;;7.30;87.71;98374.63;4910312;28;102514;-70
2022/11/07 04:06:39;;;;;;;;;13.00;10.75;;;;;7.31;87.53;98378.97;4905780;28;103025;-70
2022/11/07 04:09:06;;;;;;;;;7.75;6.50;;;;;7.35;87.21;98373.03;4889335;28;102479;-70
2022/11/07 04:17:17;;;;;;;;;6.00;6.00;;;;;7.35;86.51;98346.16;4909731;28;108323;-71
2022/11/07 04:19:54;;;;;;;;;4.25;2.75;;;;;7.31;86.38;98342.16;4908802;28;103392;-70
2022/11/07 04:22:23;;;;;;;;;8.00;5.00;;;;;7.51;85.93;98353.19;4906443;28;103729;-71
2022/11/07 04:24:50;;;;;;;;;6.75;4.00;;;;;7.49;86.44;98357.91;4911258;28;102510;-70
2022/11/07 04:30:22;;;;;;;;;7.50;5.00;;;;;7.49;86.78;98360.59;4908101;28;102232;-71
2022/11/07 04:32:52;;;;;;;;;7.25;6.75;;;;;7.49;86.93;98360.59;4907081;28;102232;-71
2022/11/07 04:35:20;;;;;;;;;12.75;7.00;;;;;7.46;87.00;98361.00;4911011;28;106060;-71
2022/11/07 04:37:47;;;;;;;;;7.00;7.00;;;;;7.49;86.50;98361.44;4910542;28;104155;-71
2022/11/07 04:40:15;;;;;;;;;6.00;3.50;;;;;7.51;86.24;98356.72;4908406;28;102219;-71
2022/11/07 04:42:43;;;;;;;;;4.75;4.50;;;;;7.51;86.35;98350.50;4908796;28;102044;-71
2022/11/07 04:45:11;;;;;;;;;10.50;9.00;;;;;7.52;86.74;98360.25;4906308;28;102419;-72
2022/11/07 04:47:39;;;;;;;;;10.00;8.75;;;;;7.52;86.67;98357.56;4903773;28;104063;-71
2022/11/07 04:50:12;;;;;;;;;12.75;9.75;;;;;7.55;86.96;98355.31;4908446;28;102446;-70
2022/11/07 04:52:39;;;;;;;;;7.25;5.25;;;;;7.60;86.96;98365.53;4908432;28;104381;-71
2022/11/07 04:55:08;;;;;;;;;8.25;8.25;;;;;7.63;86.66;98365.13;4909650;28;102548;-70
2022/11/07 04:57:34;;;;;;;;;8.50;6.50;;;;;7.61;87.00;98367.16;4898748;28;103672;-71
2022/11/07 05:00:03;;;;;;;;;3.00;2.00;;;;;7.63;86.42;98370.50;4901391;28;102043;-70
2022/11/07 05:02:30;;;;;;;;;4.75;3.75;;;;;7.67;86.37;98374.50;4907726;28;102249;-71
2022/11/07 05:04:57;;;;;;;;;6.50;4.00;;;;;7.71;86.62;98365.03;4904134;28;102421;-70
2022/11/07 05:07:24;;;;;;;;;3.25;3.00;;;;;7.73;86.93;98373.75;4906791;28;108759;-71
2022/11/07 05:09:51;;;;;;;;;3.75;2.00;;;;;7.75;86.71;98378.94;4900508;28;102497;-70
2022/11/07 05:12:18;;;;;;;;;3.25;2.00;;;;;7.76;86.69;98376.06;4900699;28;102764;-70
2022/11/07 05:14:45;;;;;;;;;3.00;2.25;;;;;7.77;86.92;98366.13;4901998;28;102391;-70
2022/11/07 05:17:14;;;;;;;;;2.75;2.00;;;;;7.77;86.69;98369.66;4899691;28;104016;-70
2022/11/07 05:19:46;;;;;;;;;1.00;1.00;;;;;7.80;86.68;98388.09;4903162;28;102281;-72
2022/11/07 05:24:59;;;;;;;;;4.25;2.00;;;;;7.80;86.76;98382.72;4901689;28;102406;-71
2022/11/07 05:27:26;;;;;;;;;4.00;3.25;;;;;7.80;86.08;98377.34;4901711;28;108683;-71
2022/11/07 05:29:52;;;;;;;;;2.00;2.00;;;;;7.79;86.44;98386.44;4898449;28;102938;-72
2022/11/07 05:32:19;;;;;;;;;1.00;1.00;;;;;7.80;86.07;98382.72;4896661;28;102131;-71
2022/11/07 05:34:48;;;;;;;;;2.00;2.00;;;;;7.82;85.84;98393.31;4902207;28;102331;-72
2022/11/07 05:37:15;;;;;;;;;1.25;1.25;;;;;7.81;86.48;98389.78;4904919;28;104040;-72
2022/11/07 05:39:41;;;;;;;;;1.25;1.25;;;;;7.84;86.32;98393.94;4910442;28;102344;-71
2022/11/07 05:42:08;;;;;;;;;2.00;1.00;;;;;7.70;86.22;98376.00;4903998;28;102044;-72
2022/11/07 05:44:35;;;;;;;;;1.25;1.25;;;;;7.88;85.93;98409.53;4919527;28;102152;-72
2022/11/07 05:47:02;;;;;;;;;2.00;1.00;;;;;7.89;86.25;98408.50;4909289;28;104004;-71
2022/11/07 05:49:29;;;;;;;;;3.00;3.00;;;;;7.93;86.52;98409.81;4906025;28;102139;-71
2022/11/07 05:51:56;;;;;;;;;3.50;3.00;;;;;7.93;85.77;98411.66;4910480;28;102226;-70
2022/11/07 05:54:26;;;;;;;;;1.25;1.00;;;;;7.94;85.64;98406.09;4908073;28;102388;-71
2022/11/07 05:56:57;;;;;;;;;2.00;1.00;;;;;7.95;85.93;98413.16;4909370;28;104010;-71
2022/11/07 05:59:24;;;;;;;;;3.00;2.00;;;;;7.97;86.07;98419.16;4903862;28;102395;-71
2022/11/07 06:01:52;;;;;;;;;5.50;4.25;;;;;8.00;85.06;98426.03;4903363;28;102401;-71
2022/11/07 06:04:20;;;;;;;;;2.50;2.50;;;;;7.97;85.84;98421.06;4908705;28;104744;-71
2022/11/07 06:06:46;;;;;;;;;2.50;1.75;;;;;7.98;85.68;98426.22;4910183;28;103965;-71
2022/11/07 06:09:14;;;;;;;;;1.00;1.00;;;;;7.98;85.66;98425.38;4908440;28;104220;-71
2022/11/07 06:11:41;;;;;;;;;1.75;1.75;;;;;7.99;85.56;98437.84;4905259;28;102509;-73
2022/11/07 06:14:08;;;;;;;;;3.25;3.25;;;;;7.97;85.59;98437.22;4905860;28;102207;-71
2022/11/07 06:16:35;;;;;;;;;3.50;3.25;;;;;7.98;85.05;98437.00;4909634;28;104121;-72
2022/11/07 06:19:02;;;;;;;;;0.00;0.00;;;;;7.99;85.64;98438.66;4911199;28;102361;-72
2022/11/07 06:21:29;;;;;;;;;11.25;10.00;;;;;7.94;85.73;98443.78;4908178;28;102371;-71
2022/11/07 06:23:57;;;;;;;;;5.25;4.25;;;;;7.91;85.63;98433.41;4919166;28;102052;-71
2022/11/07 06:26:25;;;;;;;;;13.50;13.00;;;;;7.96;85.94;98435.53;4905377;28;109378;-71
2022/11/07 06:28:52;;;;;;;;;7.75;5.00;;;;;7.98;85.26;98434.31;4902826;28;102290;-71
2022/11/07 06:31:19;;;;;;;;;5.00;4.00;;;;;7.98;85.03;98426.22;4912015;28;102385;-70
2022/11/07 06:33:50;;;;;;;;;3.25;3.00;;;;;8.03;85.37;98439.97;4910565;28;102235;-71
2022/11/07 06:36:17;;;;;;;;;4.25;4.25;;;;;8.04;85.43;98438.94;4895059;28;104014;-71
2022/11/07 06:38:44;;;;;;;;;8.00;8.00;;;;;8.02;85.42;98432.91;4914114;28;102296;-71
2022/11/07 06:41:13;;;;;;;;;8.75;7.75;;;;;8.06;85.64;98441.44;4902015;28;101922;-71
2022/11/07 06:43:40;;;;;;;;;9.00;8.00;;;;;8.10;85.75;98439.22;4906312;28;102638;-71
2022/11/07 06:46:12;;;;;;;;;5.00;4.00;;;;;8.14;85.22;98451.28;4913925;28;103665;-71
2022/11/07 06:48:39;;;;;;;;;8.25;7.75;;;;;8.18;84.90;98444.47;4914394;28;102120;-71
2022/11/07 06:51:08;;;;;;;;;4.00;3.50;;;;;8.22;85.25;98446.59;4934958;28;102160;-71
2022/11/07 06:53:35;;;;;;;;;5.50;5.50;;;;;8.27;84.66;98452.25;4918721;28;102363;-71
2022/11/07 06:56:05;;;;;;;;;10.00;6.50;;;;;8.25;84.51;98450.75;4899812;28;104000;-71
2022/11/07 06:58:33;;;;;;;;;3.00;2.50;;;;;8.29;84.73;98452.06;4908058;28;102441;-71
2022/11/07 07:01:01;;;;;;;;;4.25;4.25;;;;;8.36;84.42;98450.31;4915402;28;102972;-71
2022/11/07 07:03:28;;;;;;;;;3.25;3.25;;;;;8.41;84.57;98439.81;4928276;28;102363;-71
2022/11/07 07:06:00;;;;;;;;;8.75;6.00;;;;;8.47;84.00;98452.50;4912695;28;108544;-71
2022/11/07 07:08:28;;;;;;;;;5.25;5.25;;;;;8.52;84.04;98452.75;4909099;28;102318;-71
2022/11/07 07:10:55;;;;;;;;;4.00;3.00;;;;;8.47;83.64;98423.69;4904362;28;102417;-71
2022/11/07 07:13:22;;;;;;;;;2.00;2.00;;;;;8.66;83.30;98459.13;4918091;28;102351;-70
2022/11/07 07:15:56;;;;;;;;;7.00;4.50;;;;;8.72;82.71;98461.88;4915234;28;104043;-71
2022/11/07 07:18:25;;;;;;;;;3.50;2.00;;;;;8.77;82.48;98451.38;4905343;28;102389;-70
2022/11/07 07:21:00;;;;;;;;;5.50;5.50;;;;;8.85;82.47;98459.31;4910771;28;102231;-70
2022/11/07 07:23:27;;;;;;;;;4.00;3.50;;;;;8.99;82.09;98464.81;4907274;28;102340;-70
2022/11/07 07:25:54;;;;;;;;;7.00;6.00;;;;;9.05;82.34;98459.47;4912445;28;108565;-70
2022/11/07 07:28:21;;;;;;;;;11.25;8.25;;;;;9.13;81.24;98461.22;4923843;28;102181;-70
2022/11/07 07:30:48;;;;;;;;;9.25;6.00;;;;;9.22;81.35;98468.13;4911778;28;103194;-70
2022/11/07 07:33:18;;;;;;;;;11.00;9.25;;;;;9.27;80.44;98469.22;4921528;28;102434;-70
2022/11/07 07:35:45;;;;;;;;;9.25;8.00;;;;;9.30;80.59;98458.03;4912617;28;104034;-70
2022/11/07 07:38:12;;;;;;;;;12.00;9.50;;;;;9.34;79.92;98464.69;4919292;28;102452;-70
2022/11/07 07:40:39;;;;;;;;;9.00;8.00;;;;;9.27;79.13;98455.72;4917337;28;102432;-71
2022/11/07 07:43:06;;;;;;;;;21.00;18.25;;;;;9.33;78.82;98472.97;4913155;28;102165;-70
2022/11/07 07:45:32;;;;;;;;;16.25;10.75;;;;;9.36;77.84;98478.84;4928511;28;103953;-70
2022/11/07 07:48:01;;;;;;;;;12.00;11.25;;;;;9.37;77.84;98477.78;4907599;28;105016;-71
2022/11/07 07:50:28;;;;;;;;;31.00;24.75;;;;;9.24;77.40;98487.63;4916229;28;102434;-70
2022/11/07 07:52:57;;;;;;;;;23.00;17.25;;;;;9.18;77.36;98458.78;4917100;28;102646;-70
2022/11/07 07:55:24;;;;;;;;;23.25;18.25;;;;;9.37;77.44;98485.88;4920526;28;104025;-70
2022/11/07 07:57:51;;;;;;;;;21.25;15.50;;;;;9.40;76.85;98481.97;4919618;28;102456;-70
2022/11/07 08:00:19;;;;;;;;;15.75;14.00;;;;;9.43;77.37;98462.69;4917813;28;102147;-70
2022/11/07 08:02:45;;;;;;;;;8.25;6.25;;;;;9.65;76.27;98485.03;4913206;28;102034;-70
2022/11/07 08:05:14;;;;;;;;;7.00;5.00;;;;;9.74;75.43;98481.16;4898721;28;104038;-70
2022/11/07 08:07:49;;;;;;;;;16.50;12.50;;;;;9.69;76.18;98479.03;4914871;28;102558;-70
2022/11/07 08:10:18;;;;;;;;;11.25;9.50;;;;;9.83;75.94;98477.25;4928910;28;102507;-70
2022/11/07 08:13:05;;;;;;;;;9.00;7.75;;;;;9.89;74.94;98478.31;4903771;28;102216;-70
2022/11/07 08:15:32;;;;;;;;;10.25;10.25;;;;;9.96;75.49;98477.31;4922356;28;103947;-70
2022/11/07 08:18:02;;;;;;;;;11.50;9.50;;;;;9.84;73.85;98465.44;4921525;28;102293;-70
2022/11/07 08:20:30;;;;;;;;;10.00;8.75;;;;;10.05;72.96;98496.88;4912489;28;102310;-70
2022/11/07 08:23:02;;;;;;;;;8.00;7.00;;;;;10.14;72.71;98495.69;4916232;28;102120;-70
2022/11/07 08:25:29;;;;;;;;;8.75;8.00;;;;;10.17;71.42;98482.66;4915745;28;108827;-70
2022/11/07 08:27:56;;;;;;;;;9.00;5.75;;;;;10.20;71.70;98494.94;4896633;28;102010;-70
2022/11/07 08:30:23;;;;;;;;;9.00;7.50;;;;;10.25;70.57;98485.19;4916454;28;102298;-70
2022/11/07 08:32:50;;;;;;;;;11.00;8.75;;;;;10.31;70.45;98483.56;4900649;28;107615;-70
2022/11/07 08:35:17;;;;;;;;;7.00;4.75;;;;;10.28;69.78;98467.72;4910614;28;104020;-70
2022/11/07 08:37:44;;;;;;;;;5.75;4.75;;;;;10.39;68.96;98491.47;4905585;28;102464;-70
2022/11/07 08:40:11;;;;;;;;;5.00;4.25;;;;;10.42;67.14;98496.47;4907324;28;102264;-70
2022/11/07 08:42:38;;;;;;;;;5.25;5.00;;;;;10.44;67.58;98497.13;4911473;28;102317;-70
2022/11/07 08:45:06;;;;;;;;;5.25;5.00;;;;;10.44;66.14;98499.81;4921235;28;104260;-70
2022/11/07 08:47:33;;;;;;;;;5.75;5.50;;;;;10.44;65.15;98513.34;4916355;28;102457;-70
2022/11/07 08:50:00;;;;;;;;;10.00;8.75;;;;;10.33;65.31;98513.91;4914573;28;102347;-70
2022/11/07 08:52:27;;;;;;;;;9.75;8.50;;;;;10.31;62.89;98523.25;4911648;28;102028;-70
2022/11/07 08:54:54;;;;;;;;;6.00;5.00;;;;;10.35;63.73;98522.66;4907463;28;103993;-70
2022/11/07 08:57:21;;;;;;;;;8.00;5.25;;;;;10.33;63.31;98530.13;4916722;28;102349;-70
2022/11/07 08:59:47;;;;;;;;;4.00;4.00;;;;;10.41;63.13;98539.91;4921143;28;102474;-70
2022/11/07 09:02:14;;;;;;;;;9.00;7.00;;;;;10.32;63.16;98528.44;4913813;28;102407;-70
2022/11/07 09:05:01;;;;;;;;;6.00;6.00;;;;;10.35;63.07;98527.22;4905078;28;107560;-70
2022/11/07 09:07:28;;;;;;;;;6.00;5.00;;;;;10.41;63.77;98531.81;4908756;28;102110;-70
2022/11/07 09:09:55;;;;;;;;;7.50;5.00;;;;;10.41;63.36;98538.03;4907524;28;102060;-71
2022/11/07 09:12:22;;;;;;;;;6.25;5.00;;;;;10.39;64.17;98531.19;4898846;28;102427;-71
2022/11/07 09:14:49;;;;;;;;;8.50;6.75;;;;;10.32;63.57;98528.44;4922932;28;104024;-71
2022/11/07 09:17:16;;;;;;;;;10.00;8.50;;;;;10.18;63.96;98534.81;4912053;28;102176;-70
2022/11/07 09:19:43;;;;;;;;;6.00;5.00;;;;;10.19;64.01;98539.19;4905474;28;102205;-70
2022/11/07 09:22:10;;;;;;;;;8.50;8.25;;;;;10.13;64.85;98539.97;4914314;28;102603;-70
2022/11/07 09:24:37;;;;;;;;;8.00;8.00;;;;;10.08;64.63;98537.03;4922529;28;103985;-71
2022/11/07 09:27:04;;;;;;;;;7.25;5.50;;;;;10.10;64.12;98537.66;4890089;28;101944;-71
2022/11/07 09:29:31;;;;;;;;;8.75;7.00;;;;;10.13;63.80;98539.97;4903471;28;102170;-71
2022/11/07 09:31:58;;;;;;;;;9.00;5.75;;;;;10.04;63.88;98516.84;4901261;28;102079;-71
2022/11/07 09:34:45;;;;;;;;;7.50;5.75;;;;;10.02;64.35;98537.81;4905695;28;109735;-70
2022/11/07 09:37:20;;;;;;;;;7.50;6.75;;;;;10.10;64.65;98535.78;4912012;28;102315;-71
2022/11/07 09:39:48;;;;;;;;;8.00;6.25;;;;;10.17;64.57;98535.88;4900122;28;102378;-70
2022/11/07 09:42:43;;;;;;;;;7.25;6.25;;;;;10.12;64.37;98524.78;4909839;28;102063;-70
2022/11/07 09:45:12;;;;;;;;;6.75;6.75;;;;;10.22;64.11;98539.63;4902589;28;108743;-70
2022/11/07 09:48:00;;;;;;;;;8.25;8.00;;;;;10.28;64.03;98543.38;4909231;28;102258;-70
2022/11/07 09:50:36;;;;;;;;;8.00;6.00;;;;;10.36;63.31;98550.53;4922990;28;102241;-71
2022/11/07 09:53:06;;;;;;;;;7.00;6.25;;;;;10.46;63.12;98543.69;4924395;28;102357;-71
2022/11/07 09:55:41;;;;;;;;;6.00;5.00;;;;;10.43;62.91;98548.66;4905665;28;103990;-70
2022/11/07 09:58:23;;;;;;;;;11.25;7.00;;;;;10.41;63.22;98548.84;4930614;28;103182;-71
2022/11/07 10:00:53;;;;;;;;;6.00;6.00;;;;;10.47;62.80;98541.81;4919564;28;102014;-70
2022/11/07 10:03:20;;;;;;;;;6.00;6.00;;;;;10.58;62.89;98539.34;4908844;28;102312;-70
2022/11/07 10:06:13;;;;;;;;;7.25;6.00;;;;;10.47;62.88;98544.53;4911098;28;104003;-70
2022/11/07 10:08:51;;;;;;;;;8.00;8.00;;;;;10.47;62.60;98539.94;4909824;28;102211;-70
2022/11/07 10:11:36;;;;;;;;;6.25;5.75;;;;;10.57;62.94;98537.72;4910848;28;102189;-70
2022/11/07 10:14:27;;;;;;;;;6.75;6.25;;;;;10.45;62.88;98550.13;4919399;28;102532;-70
2022/11/07 10:17:00;;;;;;;;;10.00;6.25;;;;;10.51;62.76;98549.31;4932970;28;103678;-70
2022/11/07 10:19:57;;;;;;;;;7.75;6.50;;;;;10.51;63.01;98546.63;4909124;28;102233;-71
2022/11/07 10:22:52;;;;;;;;;11.25;9.75;;;;;10.22;62.82;98528.81;4911324;28;102138;-70
2022/11/07 10:25:32;;;;;;;;;9.00;8.25;;;;;10.53;62.55;98558.06;4924511;28;102264;-70
2022/11/07 10:28:18;;;;;;;;;9.25;9.00;;;;;10.59;63.06;98545.59;4913289;28;108151;-71
2022/11/07 10:30:54;;;;;;;;;11.50;11.00;;;;;10.42;63.33;98553.22;4895776;28;102318;-70
2022/11/07 10:34:03;;;;;;;;;12.50;11.00;;;;;10.34;63.55;98550.72;4907626;28;102300;-70
2022/11/07 10:36:33;;;;;;;;;6.00;6.00;;;;;10.73;62.71;98548.16;4907864;28;102329;-70
2022/11/07 10:39:00;;;;;;;;;6.00;6.00;;;;;10.87;63.37;98521.13;4906174;28;108481;-70
2022/11/07 10:41:30;;;;;;;;;9.75;8.00;;;;;11.09;60.63;98552.41;4916878;28;102033;-71
2022/11/07 10:44:03;;;;;;;;;5.00;5.00;;;;;11.07;61.26;98543.66;4916957;28;102366;-71
2022/11/07 10:46:38;;;;;;;;;6.25;6.00;;;;;11.10;60.60;98554.06;4915586;28;102267;-70
2022/11/07 10:49:26;;;;;;;;;9.25;9.25;;;;;10.92;61.23;98545.72;4916397;28;108666;-70
2022/11/07 10:52:04;;;;;;;;;11.25;11.00;;;;;10.52;63.23;98545.59;4895487;28;102310;-71
2022/11/07 10:54:31;;;;;;;;;10.00;8.75;;;;;10.72;61.73;98524.84;4900458;28;101982;-70
2022/11/07 10:57:14;;;;;;;;;9.00;6.00;;;;;10.92;61.17;98543.84;4914972;28;102014;-70
2022/11/07 10:59:57;;;;;;;;;8.75;6.00;;;;;11.08;61.25;98539.91;4915063;28;108790;-70
2022/11/07 11:02:28;;;;;;;;;10.50;10.50;;;;;10.88;61.20;98522.81;4909336;28;109388;-71
2022/11/07 11:05:01;;;;;;;;;5.50;5.00;;;;;11.27;61.83;98527.44;4895771;28;102235;-70
2022/11/07 11:07:39;;;;;;;;;8.00;5.25;;;;;11.42;59.70;98530.78;4907393;28;102573;-71
2022/11/07 11:10:36;;;;;;;;;6.25;6.00;;;;;11.46;59.66;98527.44;4907148;28;108746;-71
2022/11/07 11:13:03;;;;;;;;;5.00;4.75;;;;;11.55;59.72;98539.75;4909554;28;102288;-70
2022/11/07 11:15:30;;;;;;;;;5.75;5.75;;;;;11.50;59.15;98542.25;4905850;28;102438;-71
2022/11/07 11:18:05;;;;;;;;;8.75;6.00;;;;;11.43;59.31;98546.84;4912078;28;102352;-70
2022/11/07 11:20:53;;;;;;;;;6.75;5.25;;;;;11.47;60.31;98545.38;4906906;28;108806;-71
2022/11/07 11:23:23;;;;;;;;;5.75;5.00;;;;;11.54;58.90;98545.34;4914847;28;102591;-71
2022/11/07 11:25:57;;;;;;;;;10.75;9.00;;;;;11.50;59.90;98533.28;4923998;28;102289;-71
2022/11/07 11:28:32;;;;;;;;;7.25;6.00;;;;;11.67;60.04;98539.94;4907297;28;102125;-71
2022/11/07 11:31:06;;;;;;;;;9.25;7.50;;;;;11.75;58.53;98541.66;4899999;28;104041;-70
2022/11/07 11:34:00;;;;;;;;;9.00;7.00;;;;;11.66;58.95;98549.13;4905267;28;101990;-71
2022/11/07 11:36:33;;;;;;;;;8.50;6.25;;;;;11.63;58.99;98555.78;4906611;28;102562;-70
2022/11/07 11:39:04;;;;;;;;;11.00;7.75;;;;;11.62;58.65;98548.69;4922632;28;102261;-70
2022/11/07 11:41:50;;;;;;;;;7.25;6.00;;;;;11.75;59.43;98544.34;4904204;28;108644;-70
2022/11/07 11:44:26;;;;;;;;;7.00;7.00;;;;;11.72;59.20;98532.03;4910307;28;102075;-71
2022/11/07 11:47:02;;;;;;;;;5.50;5.25;;;;;11.90;58.66;98531.41;4919815;28;102343;-71
2022/11/07 11:49:31;;;;;;;;;9.75;6.25;;;;;11.94;58.18;98532.63;4924032;28;102521;-70
2022/11/07 11:52:06;;;;;;;;;6.00;6.00;;;;;11.84;57.86;98535.78;4906207;28;103963;-71
2022/11/07 11:54:33;;;;;;;;;5.50;4.50;;;;;11.90;58.12;98540.34;4904903;28;102210;-71
2022/11/07 11:57:07;;;;;;;;;10.50;7.00;;;;;11.88;57.79;98544.34;4910528;28;102439;-71